All City Stadium (Denver), Colorado
Current Conditions -  °F | °C
As of 6:53 PM on Tuesday 21 Oct 2014 (Local Time) from KAPA Reporting Station
Broken Clouds Broken Clouds  
Wind Chill: 16°   Ceiling: 20000
Heat Index: 16°   Visibility: 10mi
Dew Point:   Wind: 8mph
Humidity: 46%   Direction: 180°S
Pressure: 29.94"   Gusts: NA
Location:  39.69109°N, 104.9663°W
Report Text: KAPA 220053Z 18007KT 10SM SCT100 BKN200 16/04 A2994 RMK AO2 SLP098 T01560039
Loading
Personal Weather Stations






























Interactive Weather Map
Tropical Storm Tracking
New forecast layout! Learn more

10-Day Weather Forecast

Advertisements
Track Severe Weather on mobile